sensor_id;sensor_type;location;lat;lon;timestamp;pressure;altitude;pressure_sealevel;temperature
14851;BMP180;7517;48.400;11.770;2023-02-04T00:02:18;97197.00;;;10.40
14851;BMP180;7517;48.400;11.770;2023-02-04T00:04:46;97210.00;;;10.40
14851;BMP180;7517;48.400;11.770;2023-02-04T00:07:13;97215.00;;;10.40
14851;BMP180;7517;48.400;11.770;2023-02-04T00:09:43;97220.00;;;10.50
14851;BMP180;7517;48.400;11.770;2023-02-04T00:12:13;97217.00;;;10.50
14851;BMP180;7517;48.400;11.770;2023-02-04T00:14:40;97220.00;;;10.50
14851;BMP180;7517;48.400;11.770;2023-02-04T00:17:10;97218.00;;;10.60
14851;BMP180;7517;48.400;11.770;2023-02-04T00:19:39;97222.00;;;10.60
14851;BMP180;7517;48.400;11.770;2023-02-04T00:22:07;97230.00;;;10.60
14851;BMP180;7517;48.400;11.770;2023-02-04T00:24:36;97230.00;;;10.60
14851;BMP180;7517;48.400;11.770;2023-02-04T00:27:05;97239.00;;;10.60
14851;BMP180;7517;48.400;11.770;2023-02-04T00:29:32;97245.00;;;10.60
14851;BMP180;7517;48.400;11.770;2023-02-04T00:31:59;97240.00;;;10.60
14851;BMP180;7517;48.400;11.770;2023-02-04T00:34:26;97252.00;;;10.60
14851;BMP180;7517;48.400;11.770;2023-02-04T00:36:55;97260.00;;;10.60
14851;BMP180;7517;48.400;11.770;2023-02-04T00:39:22;97256.00;;;10.60
14851;BMP180;7517;48.400;11.770;2023-02-04T00:41:49;97257.00;;;10.60
14851;BMP180;7517;48.400;11.770;2023-02-04T00:44:17;97252.00;;;10.70
14851;BMP180;7517;48.400;11.770;2023-02-04T00:46:44;97255.00;;;10.70
14851;BMP180;7517;48.400;11.770;2023-02-04T00:49:15;97267.00;;;10.70
14851;BMP180;7517;48.400;11.770;2023-02-04T00:51:43;97270.00;;;10.60
14851;BMP180;7517;48.400;11.770;2023-02-04T00:54:14;97283.00;;;10.60
14851;BMP180;7517;48.400;11.770;2023-02-04T00:56:42;97288.00;;;10.60
14851;BMP180;7517;48.400;11.770;2023-02-04T00:59:13;97279.00;;;10.60
14851;BMP180;7517;48.400;11.770;2023-02-04T01:01:42;97290.00;;;10.50
14851;BMP180;7517;48.400;11.770;2023-02-04T01:04:10;97289.00;;;10.50
14851;BMP180;7517;48.400;11.770;2023-02-04T01:06:37;97305.00;;;10.50
14851;BMP180;7517;48.400;11.770;2023-02-04T01:09:04;97297.00;;;10.40
14851;BMP180;7517;48.400;11.770;2023-02-04T01:11:36;97291.00;;;10.40
14851;BMP180;7517;48.400;11.770;2023-02-04T01:14:04;97297.00;;;10.40
14851;BMP180;7517;48.400;11.770;2023-02-04T01:16:34;97303.00;;;10.30
14851;BMP180;7517;48.400;11.770;2023-02-04T01:19:01;97311.00;;;10.30
14851;BMP180;7517;48.400;11.770;2023-02-04T01:21:29;97303.00;;;10.30
14851;BMP180;7517;48.400;11.770;2023-02-04T01:23:57;97306.00;;;10.30
14851;BMP180;7517;48.400;11.770;2023-02-04T01:26:24;97305.00;;;10.30
14851;BMP180;7517;48.400;11.770;2023-02-04T01:28:53;97305.00;;;10.30
14851;BMP180;7517;48.400;11.770;2023-02-04T01:31:23;97307.00;;;10.20
14851;BMP180;7517;48.400;11.770;2023-02-04T01:33:50;97317.00;;;10.20
14851;BMP180;7517;48.400;11.770;2023-02-04T01:36:17;97315.00;;;10.20
14851;BMP180;7517;48.400;11.770;2023-02-04T01:38:47;97334.00;;;10.20
14851;BMP180;7517;48.400;11.770;2023-02-04T01:41:15;97318.00;;;10.20
14851;BMP180;7517;48.400;11.770;2023-02-04T01:43:43;97316.00;;;10.10
14851;BMP180;7517;48.400;11.770;2023-02-04T01:46:16;97319.00;;;10.20
14851;BMP180;7517;48.400;11.770;2023-02-04T01:48:44;97321.00;;;10.20
14851;BMP180;7517;48.400;11.770;2023-02-04T01:51:16;97327.00;;;10.20
14851;BMP180;7517;48.400;11.770;2023-02-04T01:53:45;97335.00;;;10.20
14851;BMP180;7517;48.400;11.770;2023-02-04T01:56:17;97333.00;;;10.20
14851;BMP180;7517;48.400;11.770;2023-02-04T01:58:46;97341.00;;;10.20
14851;BMP180;7517;48.400;11.770;2023-02-04T02:01:34;97345.00;;;10.20
14851;BMP180;7517;48.400;11.770;2023-02-04T02:04:03;97336.00;;;10.20
14851;BMP180;7517;48.400;11.770;2023-02-04T02:06:31;97339.00;;;10.20
14851;BMP180;7517;48.400;11.770;2023-02-04T02:08:59;97344.00;;;10.20
14851;BMP180;7517;48.400;11.770;2023-02-04T02:11:27;97346.00;;;10.20
14851;BMP180;7517;48.400;11.770;2023-02-04T02:13:55;97344.00;;;10.20
14851;BMP180;7517;48.400;11.770;2023-02-04T02:16:24;97352.00;;;10.20
14851;BMP180;7517;48.400;11.770;2023-02-04T02:18:52;97345.00;;;10.20
14851;BMP180;7517;48.400;11.770;2023-02-04T02:21:30;97350.00;;;10.20
14851;BMP180;7517;48.400;11.770;2023-02-04T02:24:26;97348.00;;;10.20
14851;BMP180;7517;48.400;11.770;2023-02-04T02:26:55;97343.00;;;10.20
14851;BMP180;7517;48.400;11.770;2023-02-04T02:29:23;97354.00;;;10.20
14851;BMP180;7517;48.400;11.770;2023-02-04T02:31:52;97357.00;;;10.20
14851;BMP180;7517;48.400;11.770;2023-02-04T02:34:22;97363.00;;;10.10
14851;BMP180;7517;48.400;11.770;2023-02-04T02:36:50;97363.00;;;10.10
14851;BMP180;7517;48.400;11.770;2023-02-04T02:39:19;97363.00;;;10.10
14851;BMP180;7517;48.400;11.770;2023-02-04T02:41:48;97374.00;;;10.10
14851;BMP180;7517;48.400;11.770;2023-02-04T02:44:16;97369.00;;;10.10
14851;BMP180;7517;48.400;11.770;2023-02-04T02:46:44;97366.00;;;10.00
14851;BMP180;7517;48.400;11.770;2023-02-04T02:49:14;97371.00;;;10.00
14851;BMP180;7517;48.400;11.770;2023-02-04T02:51:43;97370.00;;;10.00
14851;BMP180;7517;48.400;11.770;2023-02-04T02:54:21;97367.00;;;10.00
14851;BMP180;7517;48.400;11.770;2023-02-04T02:56:49;97370.00;;;9.90
14851;BMP180;7517;48.400;11.770;2023-02-04T02:59:18;97373.00;;;9.90
14851;BMP180;7517;48.400;11.770;2023-02-04T03:01:49;97383.00;;;9.90
14851;BMP180;7517;48.400;11.770;2023-02-04T03:04:20;97376.00;;;9.80
14851;BMP180;7517;48.400;11.770;2023-02-04T03:06:49;97375.00;;;9.80
14851;BMP180;7517;48.400;11.770;2023-02-04T03:09:19;97380.00;;;9.70
14851;BMP180;7517;48.400;11.770;2023-02-04T03:11:47;97375.00;;;9.70
14851;BMP180;7517;48.400;11.770;2023-02-04T03:14:15;97376.00;;;9.70
14851;BMP180;7517;48.400;11.770;2023-02-04T03:16:43;97390.00;;;9.60
14851;BMP180;7517;48.400;11.770;2023-02-04T03:19:11;97390.00;;;9.60
14851;BMP180;7517;48.400;11.770;2023-02-04T03:21:39;97393.00;;;9.60
14851;BMP180;7517;48.400;11.770;2023-02-04T03:24:07;97399.00;;;9.60
14851;BMP180;7517;48.400;11.770;2023-02-04T03:26:37;97394.00;;;9.50
14851;BMP180;7517;48.400;11.770;2023-02-04T03:29:06;97405.00;;;9.50
14851;BMP180;7517;48.400;11.770;2023-02-04T03:31:34;97405.00;;;9.50
14851;BMP180;7517;48.400;11.770;2023-02-04T03:34:03;97421.00;;;9.50
14851;BMP180;7517;48.400;11.770;2023-02-04T03:36:31;97421.00;;;9.50
14851;BMP180;7517;48.400;11.770;2023-02-04T03:38:58;97428.00;;;9.40
14851;BMP180;7517;48.400;11.770;2023-02-04T03:41:26;97428.00;;;9.40
14851;BMP180;7517;48.400;11.770;2023-02-04T03:43:55;97433.00;;;9.40
14851;BMP180;7517;48.400;11.770;2023-02-04T03:46:22;97444.00;;;9.30
14851;BMP180;7517;48.400;11.770;2023-02-04T03:48:50;97446.00;;;9.30
14851;BMP180;7517;48.400;11.770;2023-02-04T03:51:18;97450.00;;;9.30
14851;BMP180;7517;48.400;11.770;2023-02-04T03:53:45;97466.00;;;9.30
14851;BMP180;7517;48.400;11.770;2023-02-04T03:56:12;97464.00;;;9.30
14851;BMP180;7517;48.400;11.770;2023-02-04T03:58:40;97483.00;;;9.30
14851;BMP180;7517;48.400;11.770;2023-02-04T04:01:09;97473.00;;;9.20
14851;BMP180;7517;48.400;11.770;2023-02-04T04:03:36;97485.00;;;9.30
14851;BMP180;7517;48.400;11.770;2023-02-04T04:06:03;97485.00;;;9.30
14851;BMP180;7517;48.400;11.770;2023-02-04T04:08:34;97485.00;;;9.30
14851;BMP180;7517;48.400;11.770;2023-02-04T04:11:02;97490.00;;;9.30
14851;BMP180;7517;48.400;11.770;2023-02-04T04:13:29;97487.00;;;9.30
14851;BMP180;7517;48.400;11.770;2023-02-04T04:15:56;97486.00;;;9.30
14851;BMP180;7517;48.400;11.770;2023-02-04T04:18:25;97479.00;;;9.40
14851;BMP180;7517;48.400;11.770;2023-02-04T04:20:52;97484.00;;;9.40
14851;BMP180;7517;48.400;11.770;2023-02-04T04:23:19;97487.00;;;9.40
14851;BMP180;7517;48.400;11.770;2023-02-04T04:25:47;97486.00;;;9.40
14851;BMP180;7517;48.400;11.770;2023-02-04T04:28:14;97479.00;;;9.40
14851;BMP180;7517;48.400;11.770;2023-02-04T04:30:41;97477.00;;;9.40
14851;BMP180;7517;48.400;11.770;2023-02-04T04:33:09;97488.00;;;9.30
14851;BMP180;7517;48.400;11.770;2023-02-04T04:35:37;97484.00;;;9.30
14851;BMP180;7517;48.400;11.770;2023-02-04T04:38:05;97491.00;;;9.30
14851;BMP180;7517;48.400;11.770;2023-02-04T04:40:32;97495.00;;;9.30
14851;BMP180;7517;48.400;11.770;2023-02-04T04:43:00;97501.00;;;9.30
14851;BMP180;7517;48.400;11.770;2023-02-04T04:45:28;97513.00;;;9.30
14851;BMP180;7517;48.400;11.770;2023-02-04T04:47:55;97509.00;;;9.30
14851;BMP180;7517;48.400;11.770;2023-02-04T04:50:22;97502.00;;;9.20
14851;BMP180;7517;48.400;11.770;2023-02-04T04:52:51;97502.00;;;9.30
14851;BMP180;7517;48.400;11.770;2023-02-04T04:55:18;97498.00;;;9.20
14851;BMP180;7517;48.400;11.770;2023-02-04T04:57:46;97524.00;;;9.30
14851;BMP180;7517;48.400;11.770;2023-02-04T05:00:17;97519.00;;;9.30
14851;BMP180;7517;48.400;11.770;2023-02-04T05:02:45;97526.00;;;9.30
14851;BMP180;7517;48.400;11.770;2023-02-04T05:05:13;97533.00;;;9.30
14851;BMP180;7517;48.400;11.770;2023-02-04T05:07:40;97538.00;;;9.30
14851;BMP180;7517;48.400;11.770;2023-02-04T05:10:10;97541.00;;;9.30
14851;BMP180;7517;48.400;11.770;2023-02-04T05:12:37;97549.00;;;9.30
14851;BMP180;7517;48.400;11.770;2023-02-04T05:15:05;97544.00;;;9.30
14851;BMP180;7517;48.400;11.770;2023-02-04T05:17:32;97550.00;;;9.30
14851;BMP180;7517;48.400;11.770;2023-02-04T05:20:00;97552.00;;;9.30
14851;BMP180;7517;48.400;11.770;2023-02-04T05:22:27;97561.00;;;9.30
14851;BMP180;7517;48.400;11.770;2023-02-04T05:24:55;97564.00;;;9.30
14851;BMP180;7517;48.400;11.770;2023-02-04T05:27:24;97559.00;;;9.30
14851;BMP180;7517;48.400;11.770;2023-02-04T05:29:51;97572.00;;;9.30
14851;BMP180;7517;48.400;11.770;2023-02-04T05:32:18;97562.00;;;9.30
14851;BMP180;7517;48.400;11.770;2023-02-04T05:34:46;97562.00;;;9.40
14851;BMP180;7517;48.400;11.770;2023-02-04T05:37:13;97568.00;;;9.30
14851;BMP180;7517;48.400;11.770;2023-02-04T05:39:42;97566.00;;;9.40
14851;BMP180;7517;48.400;11.770;2023-02-04T05:42:10;97568.00;;;9.40
14851;BMP180;7517;48.400;11.770;2023-02-04T05:44:38;97574.00;;;9.40
14851;BMP180;7517;48.400;11.770;2023-02-04T05:47:06;97585.00;;;9.40
14851;BMP180;7517;48.400;11.770;2023-02-04T05:49:33;97590.00;;;9.40
14851;BMP180;7517;48.400;11.770;2023-02-04T05:52:00;97603.00;;;9.40
14851;BMP180;7517;48.400;11.770;2023-02-04T05:54:28;97606.00;;;9.50
14851;BMP180;7517;48.400;11.770;2023-02-04T05:56:55;97616.00;;;9.50
14851;BMP180;7517;48.400;11.770;2023-02-04T05:59:23;97608.00;;;9.50
14851;BMP180;7517;48.400;11.770;2023-02-04T06:01:51;97605.00;;;9.50
14851;BMP180;7517;48.400;11.770;2023-02-04T06:04:19;97615.00;;;9.50
14851;BMP180;7517;48.400;11.770;2023-02-04T06:06:46;97624.00;;;9.50
14851;BMP180;7517;48.400;11.770;2023-02-04T06:09:13;97617.00;;;9.50
14851;BMP180;7517;48.400;11.770;2023-02-04T06:11:41;97631.00;;;9.50
14851;BMP180;7517;48.400;11.770;2023-02-04T06:14:08;97625.00;;;9.50
14851;BMP180;7517;48.400;11.770;2023-02-04T06:16:35;97636.00;;;9.50
14851;BMP180;7517;48.400;11.770;2023-02-04T06:19:04;97638.00;;;9.50
14851;BMP180;7517;48.400;11.770;2023-02-04T06:21:31;97642.00;;;9.50
14851;BMP180;7517;48.400;11.770;2023-02-04T06:23:59;97645.00;;;9.50
14851;BMP180;7517;48.400;11.770;2023-02-04T06:26:26;97637.00;;;9.50
14851;BMP180;7517;48.400;11.770;2023-02-04T06:28:54;97642.00;;;9.50
14851;BMP180;7517;48.400;11.770;2023-02-04T06:31:21;97658.00;;;9.50
14851;BMP180;7517;48.400;11.770;2023-02-04T06:33:49;97653.00;;;9.50
14851;BMP180;7517;48.400;11.770;2023-02-04T06:36:18;97648.00;;;9.50
14851;BMP180;7517;48.400;11.770;2023-02-04T06:38:45;97662.00;;;9.50
14851;BMP180;7517;48.400;11.770;2023-02-04T06:41:13;97662.00;;;9.50
14851;BMP180;7517;48.400;11.770;2023-02-04T06:43:40;97652.00;;;9.50
14851;BMP180;7517;48.400;11.770;2023-02-04T06:46:07;97651.00;;;9.50
14851;BMP180;7517;48.400;11.770;2023-02-04T06:48:35;97660.00;;;9.50
14851;BMP180;7517;48.400;11.770;2023-02-04T06:51:02;97666.00;;;9.50
14851;BMP180;7517;48.400;11.770;2023-02-04T06:53:31;97665.00;;;9.50
14851;BMP180;7517;48.400;11.770;2023-02-04T06:55:58;97674.00;;;9.50
14851;BMP180;7517;48.400;11.770;2023-02-04T06:58:26;97675.00;;;9.50
14851;BMP180;7517;48.400;11.770;2023-02-04T07:00:53;97679.00;;;9.50
14851;BMP180;7517;48.400;11.770;2023-02-04T07:03:20;97678.00;;;9.50
14851;BMP180;7517;48.400;11.770;2023-02-04T07:05:48;97672.00;;;9.50
14851;BMP180;7517;48.400;11.770;2023-02-04T07:08:16;97686.00;;;9.50
14851;BMP180;7517;48.400;11.770;2023-02-04T07:10:44;97692.00;;;9.50
14851;BMP180;7517;48.400;11.770;2023-02-04T07:13:11;97689.00;;;9.50
14851;BMP180;7517;48.400;11.770;2023-02-04T07:15:39;97690.00;;;9.50
14851;BMP180;7517;48.400;11.770;2023-02-04T07:18:08;97703.00;;;9.50
14851;BMP180;7517;48.400;11.770;2023-02-04T07:20:35;97715.00;;;9.50
14851;BMP180;7517;48.400;11.770;2023-02-04T07:23:02;97716.00;;;9.50
14851;BMP180;7517;48.400;11.770;2023-02-04T07:25:30;97713.00;;;9.50
14851;BMP180;7517;48.400;11.770;2023-02-04T07:27:58;97726.00;;;9.60
14851;BMP180;7517;48.400;11.770;2023-02-04T07:30:26;97721.00;;;9.70
14851;BMP180;7517;48.400;11.770;2023-02-04T07:32:54;97736.00;;;9.70
14851;BMP180;7517;48.400;11.770;2023-02-04T07:35:21;97735.00;;;9.80
14851;BMP180;7517;48.400;11.770;2023-02-04T07:37:49;97737.00;;;9.80
14851;BMP180;7517;48.400;11.770;2023-02-04T07:40:16;97766.00;;;9.80
14851;BMP180;7517;48.400;11.770;2023-02-04T07:42:44;97765.00;;;9.90
14851;BMP180;7517;48.400;11.770;2023-02-04T07:45:13;97762.00;;;9.90
14851;BMP180;7517;48.400;11.770;2023-02-04T07:47:40;97772.00;;;9.90
14851;BMP180;7517;48.400;11.770;2023-02-04T07:50:09;97783.00;;;9.90
14851;BMP180;7517;48.400;11.770;2023-02-04T07:52:36;97786.00;;;9.90
14851;BMP180;7517;48.400;11.770;2023-02-04T07:55:04;97778.00;;;9.90
14851;BMP180;7517;48.400;11.770;2023-02-04T07:57:32;97781.00;;;9.90
14851;BMP180;7517;48.400;11.770;2023-02-04T07:59:59;97782.00;;;9.90
14851;BMP180;7517;48.400;11.770;2023-02-04T08:02:28;97785.00;;;9.90
14851;BMP180;7517;48.400;11.770;2023-02-04T08:04:55;97795.00;;;9.90
14851;BMP180;7517;48.400;11.770;2023-02-04T08:07:22;97793.00;;;9.90
14851;BMP180;7517;48.400;11.770;2023-02-04T08:09:50;97799.00;;;10.00
14851;BMP180;7517;48.400;11.770;2023-02-04T08:12:17;97805.00;;;10.00
14851;BMP180;7517;48.400;11.770;2023-02-04T08:14:44;97806.00;;;10.10
14851;BMP180;7517;48.400;11.770;2023-02-04T08:17:11;97822.00;;;10.10
14851;BMP180;7517;48.400;11.770;2023-02-04T08:19:40;97822.00;;;10.10
14851;BMP180;7517;48.400;11.770;2023-02-04T08:22:07;97812.00;;;10.20
14851;BMP180;7517;48.400;11.770;2023-02-04T08:24:36;97814.00;;;10.20
14851;BMP180;7517;48.400;11.770;2023-02-04T08:27:03;97821.00;;;10.30
14851;BMP180;7517;48.400;11.770;2023-02-04T08:29:31;97823.00;;;10.30
14851;BMP180;7517;48.400;11.770;2023-02-04T08:31:58;97826.00;;;10.40
14851;BMP180;7517;48.400;11.770;2023-02-04T08:34:25;97826.00;;;10.40
14851;BMP180;7517;48.400;11.770;2023-02-04T08:36:54;97832.00;;;10.40
14851;BMP180;7517;48.400;11.770;2023-02-04T08:39:21;97828.00;;;10.50
14851;BMP180;7517;48.400;11.770;2023-02-04T08:41:49;97842.00;;;10.50
14851;BMP180;7517;48.400;11.770;2023-02-04T08:44:17;97850.00;;;10.50
14851;BMP180;7517;48.400;11.770;2023-02-04T08:46:44;97858.00;;;10.50
14851;BMP180;7517;48.400;11.770;2023-02-04T08:49:12;97885.00;;;10.40
14851;BMP180;7517;48.400;11.770;2023-02-04T08:51:39;97888.00;;;10.30
14851;BMP180;7517;48.400;11.770;2023-02-04T08:54:07;97881.00;;;10.20
14851;BMP180;7517;48.400;11.770;2023-02-04T08:56:34;97881.00;;;10.10
14851;BMP180;7517;48.400;11.770;2023-02-04T08:59:02;97886.00;;;9.90
14851;BMP180;7517;48.400;11.770;2023-02-04T09:01:29;97898.00;;;9.90
14851;BMP180;7517;48.400;11.770;2023-02-04T09:03:56;97903.00;;;9.80
14851;BMP180;7517;48.400;11.770;2023-02-04T09:06:23;97909.00;;;9.70
14851;BMP180;7517;48.400;11.770;2023-02-04T09:08:50;97903.00;;;9.60
14851;BMP180;7517;48.400;11.770;2023-02-04T09:11:19;97917.00;;;9.60
14851;BMP180;7517;48.400;11.770;2023-02-04T09:13:46;97915.00;;;9.60
14851;BMP180;7517;48.400;11.770;2023-02-04T09:16:14;97915.00;;;9.60
14851;BMP180;7517;48.400;11.770;2023-02-04T09:18:42;97918.00;;;9.60
14851;BMP180;7517;48.400;11.770;2023-02-04T09:21:11;97916.00;;;9.60
14851;BMP180;7517;48.400;11.770;2023-02-04T09:23:38;97918.00;;;9.70
14851;BMP180;7517;48.400;11.770;2023-02-04T09:26:05;97911.00;;;9.70
14851;BMP180;7517;48.400;11.770;2023-02-04T09:28:34;97909.00;;;9.80
14851;BMP180;7517;48.400;11.770;2023-02-04T09:31:02;97908.00;;;9.80
14851;BMP180;7517;48.400;11.770;2023-02-04T09:33:31;97922.00;;;9.80
14851;BMP180;7517;48.400;11.770;2023-02-04T09:35:58;97927.00;;;9.80
14851;BMP180;7517;48.400;11.770;2023-02-04T09:38:25;97923.00;;;9.80
14851;BMP180;7517;48.400;11.770;2023-02-04T09:40:57;97932.00;;;9.80
14851;BMP180;7517;48.400;11.770;2023-02-04T09:43:27;97942.00;;;9.80
14851;BMP180;7517;48.400;11.770;2023-02-04T09:45:57;97953.00;;;9.70
14851;BMP180;7517;48.400;11.770;2023-02-04T09:48:25;97950.00;;;9.70
14851;BMP180;7517;48.400;11.770;2023-02-04T09:51:03;97944.00;;;9.60
14851;BMP180;7517;48.400;11.770;2023-02-04T09:53:31;97956.00;;;9.60
14851;BMP180;7517;48.400;11.770;2023-02-04T09:55:59;97959.00;;;9.60
14851;BMP180;7517;48.400;11.770;2023-02-04T09:58:32;97963.00;;;9.60
14851;BMP180;7517;48.400;11.770;2023-02-04T10:01:12;97965.00;;;9.60
14851;BMP180;7517;48.400;11.770;2023-02-04T10:03:43;97966.00;;;9.60
14851;BMP180;7517;48.400;11.770;2023-02-04T10:06:14;97970.00;;;9.60
14851;BMP180;7517;48.400;11.770;2023-02-04T10:08:44;97969.00;;;9.70
14851;BMP180;7517;48.400;11.770;2023-02-04T10:11:13;97972.00;;;9.70
14851;BMP180;7517;48.400;11.770;2023-02-04T10:13:44;97980.00;;;9.80
14851;BMP180;7517;48.400;11.770;2023-02-04T10:16:18;97983.00;;;9.80
14851;BMP180;7517;48.400;11.770;2023-02-04T10:18:46;97992.00;;;9.80
14851;BMP180;7517;48.400;11.770;2023-02-04T10:21:17;97982.00;;;9.90
14851;BMP180;7517;48.400;11.770;2023-02-04T10:23:49;97977.00;;;9.90
14851;BMP180;7517;48.400;11.770;2023-02-04T10:26:25;97974.00;;;10.00
14851;BMP180;7517;48.400;11.770;2023-02-04T10:28:59;97983.00;;;10.00
14851;BMP180;7517;48.400;11.770;2023-02-04T10:31:42;97980.00;;;10.10
14851;BMP180;7517;48.400;11.770;2023-02-04T10:34:13;97986.00;;;10.10
14851;BMP180;7517;48.400;11.770;2023-02-04T10:36:43;97985.00;;;10.20
14851;BMP180;7517;48.400;11.770;2023-02-04T10:39:14;97980.00;;;10.20
14851;BMP180;7517;48.400;11.770;2023-02-04T10:41:47;97980.00;;;10.30
14851;BMP180;7517;48.400;11.770;2023-02-04T10:44:17;97982.00;;;10.30
14851;BMP180;7517;48.400;11.770;2023-02-04T10:46:47;97986.00;;;10.30
14851;BMP180;7517;48.400;11.770;2023-02-04T10:49:22;97987.00;;;10.40
14851;BMP180;7517;48.400;11.770;2023-02-04T10:51:51;97990.00;;;10.40
14851;BMP180;7517;48.400;11.770;2023-02-04T10:54:21;97989.00;;;10.40
14851;BMP180;7517;48.400;11.770;2023-02-04T10:57:06;97987.00;;;10.50
14851;BMP180;7517;48.400;11.770;2023-02-04T10:59:36;97986.00;;;10.50
14851;BMP180;7517;48.400;11.770;2023-02-04T11:02:41;97986.00;;;10.50
14851;BMP180;7517;48.400;11.770;2023-02-04T11:05:16;97983.00;;;10.50
14851;BMP180;7517;48.400;11.770;2023-02-04T11:07:45;97977.00;;;10.50
14851;BMP180;7517;48.400;11.770;2023-02-04T11:10:15;97981.00;;;10.40
14851;BMP180;7517;48.400;11.770;2023-02-04T11:12:45;97977.00;;;10.40
14851;BMP180;7517;48.400;11.770;2023-02-04T11:15:43;97977.00;;;10.40
14851;BMP180;7517;48.400;11.770;2023-02-04T11:18:27;97984.00;;;10.40
14851;BMP180;7517;48.400;11.770;2023-02-04T11:20:58;97986.00;;;10.40
14851;BMP180;7517;48.400;11.770;2023-02-04T11:23:33;97983.00;;;10.40
14851;BMP180;7517;48.400;11.770;2023-02-04T11:26:04;97983.00;;;10.40
14851;BMP180;7517;48.400;11.770;2023-02-04T11:28:50;97980.00;;;10.40
14851;BMP180;7517;48.400;11.770;2023-02-04T11:31:41;97982.00;;;10.40
14851;BMP180;7517;48.400;11.770;2023-02-04T11:34:25;97981.00;;;10.50
14851;BMP180;7517;48.400;11.770;2023-02-04T11:37:14;97986.00;;;10.50
14851;BMP180;7517;48.400;11.770;2023-02-04T11:39:43;97992.00;;;10.60
14851;BMP180;7517;48.400;11.770;2023-02-04T11:42:22;97993.00;;;10.60
14851;BMP180;7517;48.400;11.770;2023-02-04T11:44:52;97987.00;;;10.70
14851;BMP180;7517;48.400;11.770;2023-02-04T11:47:23;97986.00;;;10.70
14851;BMP180;7517;48.400;11.770;2023-02-04T11:50:02;97981.00;;;10.60
14851;BMP180;7517;48.400;11.770;2023-02-04T11:52:29;97979.00;;;10.60
14851;BMP180;7517;48.400;11.770;2023-02-04T11:55:00;97978.00;;;10.60
14851;BMP180;7517;48.400;11.770;2023-02-04T11:57:27;97973.00;;;10.60
14851;BMP180;7517;48.400;11.770;2023-02-04T11:59:55;97976.00;;;10.60
14851;BMP180;7517;48.400;11.770;2023-02-04T12:02:23;97983.00;;;10.60
14851;BMP180;7517;48.400;11.770;2023-02-04T12:04:54;97974.00;;;10.60
14851;BMP180;7517;48.400;11.770;2023-02-04T12:07:35;97972.00;;;10.60
14851;BMP180;7517;48.400;11.770;2023-02-04T12:10:13;97966.00;;;10.50
14851;BMP180;7517;48.400;11.770;2023-02-04T12:12:49;97968.00;;;10.40
14851;BMP180;7517;48.400;11.770;2023-02-04T12:15:22;97971.00;;;10.30
14851;BMP180;7517;48.400;11.770;2023-02-04T12:18:04;97966.00;;;10.20
14851;BMP180;7517;48.400;11.770;2023-02-04T12:20:32;97963.00;;;10.20
14851;BMP180;7517;48.400;11.770;2023-02-04T12:23:01;97962.00;;;10.10
14851;BMP180;7517;48.400;11.770;2023-02-04T12:25:29;97961.00;;;10.10
14851;BMP180;7517;48.400;11.770;2023-02-04T12:27:56;97964.00;;;10.10
14851;BMP180;7517;48.400;11.770;2023-02-04T12:30:26;97960.00;;;10.10
14851;BMP180;7517;48.400;11.770;2023-02-04T12:32:53;97962.00;;;10.10
14851;BMP180;7517;48.400;11.770;2023-02-04T12:35:21;97968.00;;;10.10
14851;BMP180;7517;48.400;11.770;2023-02-04T12:37:48;97965.00;;;10.20
14851;BMP180;7517;48.400;11.770;2023-02-04T12:40:20;97959.00;;;10.20
14851;BMP180;7517;48.400;11.770;2023-02-04T12:42:47;97966.00;;;10.30
14851;BMP180;7517;48.400;11.770;2023-02-04T12:45:16;97962.00;;;10.40
14851;BMP180;7517;48.400;11.770;2023-02-04T12:47:44;97964.00;;;10.40
14851;BMP180;7517;48.400;11.770;2023-02-04T12:50:14;97967.00;;;10.40
14851;BMP180;7517;48.400;11.770;2023-02-04T12:52:50;97972.00;;;10.50
14851;BMP180;7517;48.400;11.770;2023-02-04T12:55:20;97965.00;;;10.50
14851;BMP180;7517;48.400;11.770;2023-02-04T12:57:48;97973.00;;;10.40
14851;BMP180;7517;48.400;11.770;2023-02-04T13:00:18;97971.00;;;10.40
14851;BMP180;7517;48.400;11.770;2023-02-04T13:02:46;97978.00;;;10.40
14851;BMP180;7517;48.400;11.770;2023-02-04T13:05:15;97968.00;;;10.30
14851;BMP180;7517;48.400;11.770;2023-02-04T13:07:43;97972.00;;;10.30
14851;BMP180;7517;48.400;11.770;2023-02-04T13:10:13;97977.00;;;10.30
14851;BMP180;7517;48.400;11.770;2023-02-04T13:12:41;97977.00;;;10.30
14851;BMP180;7517;48.400;11.770;2023-02-04T13:15:10;97970.00;;;10.30
14851;BMP180;7517;48.400;11.770;2023-02-04T13:17:37;97980.00;;;10.40
14851;BMP180;7517;48.400;11.770;2023-02-04T13:20:06;97982.00;;;10.40
14851;BMP180;7517;48.400;11.770;2023-02-04T13:22:33;97986.00;;;10.40
14851;BMP180;7517;48.400;11.770;2023-02-04T13:25:01;97988.00;;;10.50
14851;BMP180;7517;48.400;11.770;2023-02-04T13:27:28;97986.00;;;10.50
14851;BMP180;7517;48.400;11.770;2023-02-04T13:29:58;97982.00;;;10.60
14851;BMP180;7517;48.400;11.770;2023-02-04T13:32:25;97990.00;;;10.60
14851;BMP180;7517;48.400;11.770;2023-02-04T13:34:52;97993.00;;;10.70
14851;BMP180;7517;48.400;11.770;2023-02-04T13:37:19;97991.00;;;10.70
14851;BMP180;7517;48.400;11.770;2023-02-04T13:39:46;97992.00;;;10.70
14851;BMP180;7517;48.400;11.770;2023-02-04T13:42:15;97997.00;;;10.70
14851;BMP180;7517;48.400;11.770;2023-02-04T13:44:42;98005.00;;;10.60
14851;BMP180;7517;48.400;11.770;2023-02-04T13:47:11;98017.00;;;10.60
14851;BMP180;7517;48.400;11.770;2023-02-04T13:49:38;98026.00;;;10.60
14851;BMP180;7517;48.400;11.770;2023-02-04T13:52:05;98028.00;;;10.60
14851;BMP180;7517;48.400;11.770;2023-02-04T13:54:32;98022.00;;;10.60
14851;BMP180;7517;48.400;11.770;2023-02-04T13:56:59;98016.00;;;10.60
14851;BMP180;7517;48.400;11.770;2023-02-04T13:59:27;98021.00;;;10.60
14851;BMP180;7517;48.400;11.770;2023-02-04T14:01:54;98026.00;;;10.60
14851;BMP180;7517;48.400;11.770;2023-02-04T14:04:23;98016.00;;;10.60
14851;BMP180;7517;48.400;11.770;2023-02-04T14:06:51;98026.00;;;10.60
14851;BMP180;7517;48.400;11.770;2023-02-04T14:09:20;98032.00;;;10.60
14851;BMP180;7517;48.400;11.770;2023-02-04T14:11:48;98037.00;;;10.60
14851;BMP180;7517;48.400;11.770;2023-02-04T14:14:16;98036.00;;;10.60
14851;BMP180;7517;48.400;11.770;2023-02-04T14:16:43;98041.00;;;10.60
14851;BMP180;7517;48.400;11.770;2023-02-04T14:19:11;98038.00;;;10.70
14851;BMP180;7517;48.400;11.770;2023-02-04T14:21:41;98045.00;;;10.70
14851;BMP180;7517;48.400;11.770;2023-02-04T14:24:08;98036.00;;;10.70
14851;BMP180;7517;48.400;11.770;2023-02-04T14:26:35;98045.00;;;10.70